createdAt,value
2022-08-30T00:00:53.901Z,74.69
2022-08-30T00:01:53.938Z,74.49
2022-08-30T00:02:53.983Z,74.69
2022-08-30T00:03:53.942Z,74.60
2022-08-30T00:04:53.861Z,74.36
2022-08-30T00:05:53.852Z,74.16
2022-08-30T00:06:53.845Z,74.36
2022-08-30T00:07:53.847Z,74.36
2022-08-30T00:08:53.849Z,74.69
2022-08-30T00:09:53.811Z,75.20
2022-08-30T00:10:53.805Z,76.25
2022-08-30T00:11:53.793Z,76.65
2022-08-30T00:12:53.795Z,76.15
2022-08-30T00:13:53.772Z,75.95
2022-08-30T00:14:53.765Z,77.15
2022-08-30T00:15:53.796Z,76.65
2022-08-30T00:16:53.743Z,76.86
2022-08-30T00:17:53.766Z,75.84
2022-08-30T00:18:53.725Z,75.95
2022-08-30T00:19:53.712Z,75.74
2022-08-30T00:20:53.710Z,75.95
2022-08-30T00:21:53.695Z,75.74
2022-08-30T00:22:53.731Z,76.35
2022-08-30T00:23:53.670Z,76.65
2022-08-30T00:24:53.662Z,76.55
2022-08-30T00:25:53.655Z,76.35
2022-08-30T00:26:53.641Z,75.84
2022-08-30T00:27:53.630Z,76.45
2022-08-30T00:28:53.657Z,75.74
2022-08-30T00:29:53.614Z,76.25
2022-08-30T00:30:53.625Z,76.35
2022-08-30T00:31:53.593Z,76.82
2022-08-30T00:32:53.588Z,76.15
2022-08-30T00:33:53.591Z,76.25
2022-08-30T00:34:53.562Z,76.55
2022-08-30T00:35:53.554Z,76.86
2022-08-30T00:36:53.543Z,76.75
2022-08-30T00:37:53.534Z,76.45
2022-08-30T00:38:53.537Z,76.95
2022-08-30T00:39:53.542Z,76.86
2022-08-30T00:40:53.505Z,77.06
2022-08-30T00:41:53.501Z,76.45
2022-08-30T00:42:58.142Z,76.51
2022-08-30T00:43:55.481Z,76.11
2022-08-30T00:44:53.506Z,76.65
2022-08-30T00:45:53.473Z,77.06
2022-08-30T00:46:53.453Z,76.65
2022-08-30T00:47:53.438Z,76.25
2022-08-30T00:48:53.431Z,76.31
2022-08-30T00:49:53.452Z,76.31
2022-08-30T00:50:53.411Z,76.21
2022-08-30T00:51:53.400Z,75.51
2022-08-30T00:52:53.391Z,75.20
2022-08-30T00:53:53.385Z,75.10
2022-08-30T00:54:53.372Z,75.20
2022-08-30T00:55:53.404Z,75.00
2022-08-30T00:56:53.356Z,74.80
2022-08-30T00:57:53.343Z,74.66
2022-08-30T00:58:53.340Z,74.60
2022-08-30T00:59:53.321Z,74.46
2022-08-30T01:00:53.342Z,75.40
2022-08-30T01:01:53.344Z,74.96
2022-08-30T01:02:53.323Z,75.91
2022-08-30T01:03:53.279Z,76.31
2022-08-30T01:04:53.274Z,76.11
2022-08-30T01:05:53.264Z,76.11
2022-08-30T01:06:53.270Z,75.71
2022-08-30T01:07:53.245Z,75.10
2022-08-30T01:08:53.235Z,75.40
2022-08-30T01:09:53.223Z,75.40
2022-08-30T01:10:53.223Z,75.10
2022-08-30T01:11:53.238Z,75.91
2022-08-30T01:12:53.195Z,75.51
2022-08-30T01:13:53.185Z,75.51
2022-08-30T01:14:53.173Z,75.60
2022-08-30T01:15:53.227Z,75.71
2022-08-30T01:16:53.196Z,75.91
2022-08-30T01:17:53.153Z,75.60
2022-08-30T01:18:53.137Z,76.11
2022-08-30T01:19:53.124Z,76.35
2022-08-30T01:20:53.112Z,76.15
2022-08-30T01:21:53.101Z,76.51
2022-08-30T01:22:53.128Z,75.95
2022-08-30T01:23:53.093Z,75.91
2022-08-30T01:24:53.078Z,76.04
2022-08-30T01:25:53.071Z,76.35
2022-08-30T01:26:53.058Z,76.65
2022-08-30T01:27:53.073Z,76.04
2022-08-30T01:28:53.037Z,76.25
2022-08-30T01:29:53.025Z,75.88
2022-08-30T01:30:53.077Z,76.86
2022-08-30T01:31:53.002Z,77.06
2022-08-30T01:32:52.996Z,77.70
2022-08-30T01:33:53.001Z,77.19
2022-08-30T01:34:52.974Z,78.14
2022-08-30T01:35:52.964Z,78.24
2022-08-30T01:36:52.963Z,78.64
2022-08-30T01:37:52.946Z,78.55
2022-08-30T01:38:52.944Z,78.64
2022-08-30T01:39:53.924Z,78.04
2022-08-30T01:40:52.918Z,78.55
2022-08-30T01:41:52.904Z,78.24
2022-08-30T01:42:52.892Z,78.24
2022-08-30T01:43:52.922Z,78.04
2022-08-30T01:44:52.873Z,78.75
2022-08-30T01:45:52.917Z,79.79
2022-08-30T01:46:52.861Z,79.22
2022-08-30T01:47:52.850Z,80.24
2022-08-30T01:48:54.002Z,79.63
2022-08-30T01:49:52.823Z,80.34
2022-08-30T01:50:52.814Z,80.10
2022-08-30T01:52:00.245Z,80.54
2022-08-30T01:52:53.798Z,80.30
2022-08-30T01:53:52.787Z,79.69
2022-08-30T01:54:52.831Z,78.99
2022-08-30T01:55:52.768Z,80.00
2022-08-30T01:56:52.756Z,79.79
2022-08-30T01:57:52.749Z,79.69
2022-08-30T01:58:52.738Z,79.25
2022-08-30T01:59:52.742Z,78.64
2022-08-30T02:00:52.717Z,78.55
2022-08-30T02:01:52.738Z,78.24
2022-08-30T02:02:52.710Z,78.75
2022-08-30T02:03:52.741Z,78.04
2022-08-30T02:04:52.731Z,78.24
2022-08-30T02:05:52.672Z,78.34
2022-08-30T02:06:52.661Z,78.34
2022-08-30T02:07:52.654Z,78.14
2022-08-30T02:08:52.641Z,77.73
2022-08-30T02:09:52.664Z,78.14
2022-08-30T02:10:52.622Z,78.04
2022-08-30T02:11:52.619Z,77.33
2022-08-30T02:12:52.603Z,77.53
2022-08-30T02:13:52.597Z,77.84
2022-08-30T02:14:52.586Z,77.80
2022-08-30T02:15:52.619Z,78.00
2022-08-30T02:16:52.607Z,77.53
2022-08-30T02:17:52.558Z,77.43
2022-08-30T02:18:52.545Z,77.80
2022-08-30T02:19:52.530Z,77.80
2022-08-30T02:20:52.557Z,78.00
2022-08-30T02:21:52.515Z,77.33
2022-08-30T02:22:52.506Z,77.43
2022-08-30T02:23:52.498Z,77.33
2022-08-30T02:24:52.486Z,77.33
2022-08-30T02:25:52.482Z,77.43
2022-08-30T02:26:52.480Z,77.23
2022-08-30T02:27:52.454Z,77.33
2022-08-30T02:28:52.439Z,77.43
2022-08-30T02:29:53.436Z,77.73
2022-08-30T02:30:52.491Z,78.04
2022-08-30T02:31:52.433Z,78.04
2022-08-30T02:32:52.408Z,78.04
2022-08-30T02:33:52.413Z,78.04
2022-08-30T02:34:52.387Z,78.24
2022-08-30T02:35:52.378Z,78.24
2022-08-30T02:36:52.407Z,78.04
2022-08-30T02:37:52.362Z,78.14
2022-08-30T02:38:52.348Z,77.90
2022-08-30T02:39:52.342Z,78.14
2022-08-30T02:40:52.331Z,77.23
2022-08-30T02:41:52.355Z,77.33
2022-08-30T02:42:52.311Z,77.13
2022-08-30T02:43:52.301Z,77.43
2022-08-30T02:44:52.283Z,77.43
2022-08-30T02:45:53.334Z,77.64
2022-08-30T02:46:52.271Z,77.64
2022-08-30T02:47:52.280Z,77.43
2022-08-30T02:48:52.250Z,78.04
2022-08-30T02:49:52.242Z,78.04
2022-08-30T02:50:52.237Z,78.38
2022-08-30T02:51:52.225Z,78.64
2022-08-30T02:52:52.245Z,78.75
2022-08-30T02:53:52.207Z,78.34
2022-08-30T02:54:52.189Z,78.55
2022-08-30T02:55:52.187Z,78.14
2022-08-30T02:56:52.181Z,78.34
2022-08-30T02:57:52.196Z,78.44
2022-08-30T02:58:52.160Z,78.04
2022-08-30T02:59:52.151Z,78.14
2022-08-30T03:00:52.166Z,78.14
2022-08-30T03:01:52.124Z,78.04
2022-08-30T03:02:52.121Z,78.24
2022-08-30T03:03:52.157Z,78.04
2022-08-30T03:04:52.099Z,78.04
2022-08-30T03:05:52.083Z,78.24
2022-08-30T03:06:52.083Z,78.24
2022-08-30T03:07:52.071Z,78.14
2022-08-30T03:08:52.102Z,77.94
2022-08-30T03:09:52.050Z,77.84
2022-08-30T03:10:52.045Z,77.43
2022-08-30T03:11:52.032Z,77.84
2022-08-30T03:12:52.022Z,77.84
2022-08-30T03:13:52.054Z,78.24
2022-08-30T03:14:52.003Z,77.23
2022-08-30T03:15:51.993Z,77.43
2022-08-30T03:16:52.045Z,78.04
2022-08-30T03:17:51.973Z,78.04
2022-08-30T03:18:51.971Z,77.94
2022-08-30T03:19:51.975Z,78.14
2022-08-30T03:20:54.446Z,78.34
2022-08-30T03:21:51.938Z,77.94
2022-08-30T03:22:51.927Z,78.14
2022-08-30T03:23:51.914Z,78.04
2022-08-30T03:24:51.945Z,77.94
2022-08-30T03:25:51.898Z,77.84
2022-08-30T03:26:51.888Z,78.24
2022-08-30T03:27:51.875Z,78.58
2022-08-30T03:28:51.870Z,80.04
2022-08-30T03:29:51.899Z,79.83
2022-08-30T03:30:51.848Z,79.93
2022-08-30T03:31:53.173Z,80.13
2022-08-30T03:32:51.828Z,80.04
2022-08-30T03:33:51.820Z,79.73
2022-08-30T03:34:51.809Z,79.73
2022-08-30T03:35:51.820Z,80.04
2022-08-30T03:36:51.793Z,80.30
2022-08-30T03:37:56.356Z,80.13
2022-08-30T03:38:51.772Z,80.13
2022-08-30T03:39:51.764Z,80.13
2022-08-30T03:40:51.767Z,79.33
2022-08-30T03:41:51.883Z,80.24
2022-08-30T03:42:51.755Z,79.87
2022-08-30T03:43:51.728Z,79.87
2022-08-30T03:44:52.717Z,79.73
2022-08-30T03:45:51.806Z,79.97
2022-08-30T03:46:51.698Z,79.97
2022-08-30T03:47:51.683Z,79.97
2022-08-30T03:48:51.678Z,79.77
2022-08-30T03:49:51.667Z,79.73
2022-08-30T03:50:51.700Z,79.87
2022-08-30T03:51:51.648Z,79.77
2022-08-30T03:52:51.635Z,80.68
2022-08-30T03:53:51.625Z,80.68
2022-08-30T03:54:51.619Z,81.02
2022-08-30T03:55:51.607Z,80.38
2022-08-30T03:56:51.639Z,80.58
2022-08-30T03:57:51.595Z,80.38
2022-08-30T03:58:51.577Z,80.27
2022-08-30T03:59:51.566Z,80.38
2022-08-30T04:00:51.610Z,80.47
2022-08-30T04:01:51.621Z,80.47
2022-08-30T04:02:51.542Z,80.68
2022-08-30T04:03:51.532Z,80.68
2022-08-30T04:04:51.522Z,80.52
2022-08-30T04:05:51.511Z,80.11
2022-08-30T04:06:51.497Z,79.97
2022-08-30T04:07:51.508Z,80.31
2022-08-30T04:08:51.491Z,80.41
2022-08-30T04:09:51.475Z,80.21
2022-08-30T04:10:51.465Z,80.41
2022-08-30T04:11:51.448Z,80.76
2022-08-30T04:12:51.458Z,80.86
2022-08-30T04:13:51.428Z,80.76
2022-08-30T04:14:51.415Z,81.12
2022-08-30T04:15:51.418Z,81.16
2022-08-30T04:16:51.486Z,81.23
2022-08-30T04:17:51.418Z,81.02
2022-08-30T04:18:51.385Z,81.23
2022-08-30T04:19:51.371Z,81.02
2022-08-30T04:20:51.357Z,80.86
2022-08-30T04:21:51.349Z,81.02
2022-08-30T04:22:51.380Z,81.12
2022-08-30T04:23:51.325Z,81.12
2022-08-30T04:24:51.329Z,80.72
2022-08-30T04:25:51.311Z,80.82
2022-08-30T04:26:51.302Z,80.96
2022-08-30T04:27:51.292Z,81.02
2022-08-30T04:28:51.308Z,81.37
2022-08-30T04:29:51.269Z,81.46
2022-08-30T04:30:51.263Z,81.52
2022-08-30T04:31:51.297Z,81.67
2022-08-30T04:32:54.424Z,82.17
2022-08-30T04:33:52.259Z,82.07
2022-08-30T04:34:51.228Z,82.17
2022-08-30T04:35:51.217Z,82.07
2022-08-30T04:36:51.197Z,81.97
2022-08-30T04:37:51.190Z,81.87
2022-08-30T04:38:51.179Z,81.77
2022-08-30T04:39:51.190Z,81.77
2022-08-30T04:40:51.155Z,81.87
2022-08-30T04:41:51.148Z,81.87
2022-08-30T04:42:51.135Z,82.17
2022-08-30T04:43:51.128Z,82.38
2022-08-30T04:44:51.161Z,82.38
2022-08-30T04:45:51.159Z,82.48
2022-08-30T04:46:51.096Z,82.07
2022-08-30T04:47:51.084Z,81.93
2022-08-30T04:48:51.072Z,81.73
2022-08-30T04:49:51.091Z,81.83
2022-08-30T04:50:51.051Z,81.32
2022-08-30T04:51:51.042Z,81.73
2022-08-30T04:52:51.038Z,81.73
2022-08-30T04:53:51.026Z,81.63
2022-08-30T04:54:51.017Z,81.02
2022-08-30T04:55:51.021Z,81.43
2022-08-30T04:56:50.995Z,81.32
2022-08-30T04:57:50.997Z,81.73
2022-08-30T04:58:50.978Z,81.12
2022-08-30T05:00:22.859Z,81.23
2022-08-30T05:00:51.046Z,81.02
2022-08-30T05:01:51.023Z,81.12
2022-08-30T05:02:51.026Z,80.98
2022-08-30T05:03:50.926Z,81.18
2022-08-30T05:04:50.909Z,80.92
2022-08-30T05:05:50.933Z,80.98
2022-08-30T05:06:50.895Z,80.47
2022-08-30T05:07:50.879Z,80.38
2022-08-30T05:08:50.873Z,80.47
2022-08-30T05:09:50.863Z,80.68
2022-08-30T05:10:50.854Z,80.38
2022-08-30T05:11:50.860Z,80.68
2022-08-30T05:12:50.829Z,80.47
2022-08-30T05:13:50.823Z,80.47
2022-08-30T05:14:50.813Z,80.24
2022-08-30T05:15:50.850Z,80.58
2022-08-30T05:16:50.818Z,80.78
2022-08-30T05:17:50.780Z,80.98
2022-08-30T05:18:50.768Z,81.18
2022-08-30T05:19:50.759Z,80.58
2022-08-30T05:20:50.747Z,80.78
2022-08-30T05:21:50.778Z,80.38
2022-08-30T05:22:53.530Z,80.38
2022-08-30T05:23:50.720Z,80.38
2022-08-30T05:24:50.711Z,80.68
2022-08-30T05:25:50.696Z,80.38
2022-08-30T05:26:50.694Z,80.13
2022-08-30T05:27:50.693Z,80.44
2022-08-30T05:28:50.680Z,80.13
2022-08-30T05:29:50.660Z,80.04
2022-08-30T05:30:50.649Z,79.59
2022-08-30T05:31:50.688Z,79.79
2022-08-30T05:32:50.672Z,80.00
2022-08-30T05:33:50.615Z,80.00
2022-08-30T05:34:51.414Z,80.06
2022-08-30T05:35:50.598Z,79.25
2022-08-30T05:36:50.588Z,79.05
2022-08-30T05:37:50.616Z,79.25
2022-08-30T05:38:50.567Z,78.75
2022-08-30T05:39:51.440Z,78.41
2022-08-30T05:40:50.552Z,78.30
2022-08-30T05:41:50.563Z,78.10
2022-08-30T05:42:50.528Z,78.10
2022-08-30T05:43:50.535Z,78.00
2022-08-30T05:44:50.514Z,77.80
2022-08-30T05:45:50.495Z,77.29
2022-08-30T05:46:50.487Z,77.76
2022-08-30T05:47:50.477Z,77.86
2022-08-30T05:48:50.481Z,77.56
2022-08-30T05:49:50.455Z,77.46
2022-08-30T05:50:50.446Z,76.95
2022-08-30T05:51:50.438Z,77.06
2022-08-30T05:52:50.427Z,77.36
2022-08-30T05:53:50.447Z,76.82
2022-08-30T05:54:50.430Z,76.62
2022-08-30T05:55:50.396Z,77.02
2022-08-30T05:56:50.383Z,76.82
2022-08-30T05:57:50.374Z,75.77
2022-08-30T05:58:50.414Z,75.77
2022-08-30T05:59:50.355Z,75.13
2022-08-30T06:00:50.343Z,74.99
2022-08-30T06:01:50.410Z,74.08
2022-08-30T06:02:50.398Z,73.75
2022-08-30T06:03:50.315Z,73.35
2022-08-30T06:04:50.352Z,72.91
2022-08-30T06:05:50.303Z,72.31
2022-08-30T06:06:50.297Z,71.77
2022-08-30T06:07:50.271Z,71.36
2022-08-30T06:08:50.269Z,71.36
2022-08-30T06:09:50.273Z,71.23
2022-08-30T06:10:50.276Z,71.26
2022-08-30T06:11:50.236Z,71.56
2022-08-30T06:12:50.227Z,71.77
2022-08-30T06:13:50.218Z,72.00
2022-08-30T06:14:50.237Z,71.91
2022-08-30T06:15:50.214Z,71.77
2022-08-30T06:16:50.188Z,71.23
2022-08-30T06:17:50.177Z,70.59
2022-08-30T06:18:50.166Z,69.22
2022-08-30T06:19:50.188Z,67.55
2022-08-30T06:20:50.946Z,67.05
2022-08-30T06:21:50.143Z,67.28
2022-08-30T06:22:50.127Z,67.58
2022-08-30T06:23:50.122Z,68.02
2022-08-30T06:24:58.162Z,68.32
2022-08-30T06:25:52.116Z,68.95
2022-08-30T06:26:50.092Z,69.12
2022-08-30T06:27:54.495Z,69.06
2022-08-30T06:28:51.065Z,68.62
2022-08-30T06:29:50.058Z,67.94
2022-08-30T06:30:50.061Z,68.65
2022-08-30T06:31:50.114Z,70.16
2022-08-30T06:32:50.026Z,66.21
2022-08-30T06:33:50.019Z,65.25
2022-08-30T06:34:50.009Z,64.12
2022-08-30T06:35:59.051Z,62.62
2022-08-30T06:36:51.995Z,61.79
2022-08-30T06:37:49.977Z,61.29
2022-08-30T06:38:49.971Z,61.49
2022-08-30T06:39:49.994Z,59.64
2022-08-30T06:40:49.967Z,59.21
2022-08-30T06:41:49.944Z,57.76
2022-08-30T06:42:49.933Z,56.93
2022-08-30T06:43:49.923Z,55.38
2022-08-30T06:44:49.925Z,54.46
2022-08-30T06:45:49.943Z,53.31
2022-08-30T06:46:50.043Z,52.56
2022-08-30T06:47:49.963Z,51.45
2022-08-30T06:48:49.878Z,50.93
2022-08-30T06:49:49.864Z,51.07
2022-08-30T06:50:49.902Z,52.59
2022-08-30T06:51:49.844Z,53.27
2022-08-30T06:52:49.838Z,54.88
2022-08-30T06:53:49.833Z,55.86
2022-08-30T06:54:49.820Z,57.39
2022-08-30T06:55:49.812Z,58.34
2022-08-30T06:56:58.069Z,60.19
2022-08-30T06:57:51.793Z,61.12
2022-08-30T06:58:49.782Z,61.35
2022-08-30T06:59:52.191Z,62.78
2022-08-30T07:00:49.767Z,63.11
2022-08-30T07:01:49.819Z,63.64
2022-08-30T07:02:49.856Z,64.45
2022-08-30T07:03:49.758Z,65.58
2022-08-30T07:04:49.732Z,65.88
2022-08-30T07:05:49.711Z,66.21
2022-08-30T07:06:49.724Z,66.31
2022-08-30T07:07:49.692Z,66.21
2022-08-30T07:08:49.679Z,67.88
2022-08-30T07:09:50.672Z,67.88
2022-08-30T07:10:49.658Z,68.29
2022-08-30T07:11:49.691Z,68.18
2022-08-30T07:12:49.649Z,68.18
2022-08-30T07:13:49.643Z,68.29
2022-08-30T07:14:50.623Z,68.15
2022-08-30T07:15:49.746Z,68.18
2022-08-30T07:16:51.152Z,68.68
2022-08-30T07:17:49.590Z,68.65
2022-08-30T07:18:49.581Z,68.95
2022-08-30T07:19:49.568Z,68.22
2022-08-30T07:20:49.571Z,67.29
2022-08-30T07:21:49.592Z,66.28
2022-08-30T07:22:49.559Z,66.02
2022-08-30T07:23:53.300Z,64.52
2022-08-30T07:24:50.523Z,63.29
2022-08-30T07:25:49.548Z,62.86
2022-08-30T07:26:49.500Z,63.36
2022-08-30T07:27:49.563Z,63.29
2022-08-30T07:28:49.482Z,65.19
2022-08-30T07:29:50.473Z,64.89
2022-08-30T07:30:49.476Z,66.39
2022-08-30T07:31:49.542Z,65.55
2022-08-30T07:32:49.482Z,65.09
2022-08-30T07:33:49.432Z,65.28
2022-08-30T07:34:49.428Z,65.62
2022-08-30T07:35:49.422Z,67.25
2022-08-30T07:36:49.412Z,67.76
2022-08-30T07:37:49.443Z,65.95
2022-08-30T07:38:49.384Z,67.55
2022-08-30T07:39:49.379Z,66.42
2022-08-30T07:40:49.379Z,66.72
2022-08-30T07:41:49.393Z,66.32
2022-08-30T07:42:49.385Z,65.05
2022-08-30T07:43:49.334Z,65.09
2022-08-30T07:44:51.088Z,65.31
2022-08-30T07:45:49.346Z,66.45
2022-08-30T07:46:49.356Z,66.55
2022-08-30T07:47:49.292Z,67.76
2022-08-30T07:48:49.312Z,68.08
2022-08-30T07:49:49.319Z,67.42
2022-08-30T07:50:51.621Z,67.58
2022-08-30T07:51:49.257Z,66.31
2022-08-30T07:52:49.244Z,64.61
2022-08-30T07:53:49.253Z,65.48
2022-08-30T07:54:52.813Z,65.38
2022-08-30T07:55:49.217Z,65.98
2022-08-30T07:56:49.238Z,66.25
2022-08-30T07:57:49.265Z,64.54
2022-08-30T07:58:49.215Z,65.35
2022-08-30T07:59:49.180Z,65.45
2022-08-30T08:00:49.168Z,64.72
2022-08-30T08:01:49.218Z,63.24
2022-08-30T08:02:49.206Z,62.94
2022-08-30T08:03:49.167Z,63.31
2022-08-30T08:04:49.165Z,64.39
2022-08-30T08:05:49.121Z,62.18
2022-08-30T08:06:49.109Z,61.78
2022-08-30T08:07:49.103Z,60.58
2022-08-30T08:08:49.128Z,61.55
2022-08-30T08:09:49.098Z,60.08
2022-08-30T08:10:49.064Z,62.45
2022-08-30T08:11:49.059Z,61.88
2022-08-30T08:12:49.053Z,62.18
2022-08-30T08:13:54.008Z,62.48
2022-08-30T08:14:50.043Z,60.48
2022-08-30T08:15:49.092Z,59.58
2022-08-30T08:16:49.008Z,59.58
2022-08-30T08:17:49.004Z,59.68
2022-08-30T08:18:48.989Z,60.55
2022-08-30T08:19:48.998Z,59.55
2022-08-30T08:20:48.968Z,59.48
2022-08-30T08:21:59.389Z,60.18
2022-08-30T08:22:50.949Z,59.48
2022-08-30T08:23:49.025Z,59.81
2022-08-30T08:24:48.952Z,59.44
2022-08-30T08:25:48.922Z,60.84
2022-08-30T08:26:48.952Z,62.21
2022-08-30T08:27:48.901Z,61.41
2022-08-30T08:28:48.949Z,62.81
2022-08-30T08:29:48.898Z,59.11
2022-08-30T08:30:48.954Z,59.64
2022-08-30T08:31:48.916Z,59.81
2022-08-30T08:32:48.854Z,59.50
2022-08-30T08:33:48.878Z,59.61
2022-08-30T08:34:48.869Z,59.68
2022-08-30T08:35:48.821Z,60.61
2022-08-30T08:36:48.814Z,61.88
2022-08-30T08:37:48.805Z,61.18
2022-08-30T08:38:48.799Z,61.15
2022-08-30T08:39:48.826Z,60.08
2022-08-30T08:40:48.771Z,60.75
2022-08-30T08:41:48.765Z,60.48
2022-08-30T08:42:48.751Z,60.48
2022-08-30T08:43:48.738Z,60.88
2022-08-30T08:45:48.719Z,60.95
2022-08-30T08:46:48.741Z,60.55
2022-08-30T08:47:48.697Z,62.18
2022-08-30T08:48:59.567Z,62.48
2022-08-30T08:49:50.715Z,62.18
2022-08-30T08:50:48.672Z,61.95
2022-08-30T08:51:48.661Z,57.85
2022-08-30T08:52:48.652Z,59.38
2022-08-30T08:53:48.636Z,59.38
2022-08-30T08:54:48.638Z,61.21
2022-08-30T08:55:48.671Z,62.48
2022-08-30T08:56:48.614Z,61.08
2022-08-30T08:57:48.606Z,59.88
2022-08-30T08:58:48.589Z,59.31
2022-08-30T08:59:48.585Z,59.50
2022-08-30T09:00:48.589Z,60.61
2022-08-30T09:01:48.667Z,61.18
2022-08-30T09:02:51.617Z,59.65
2022-08-30T09:03:49.545Z,59.15
2022-08-30T09:04:48.545Z,60.85
2022-08-30T09:05:48.596Z,60.92
2022-08-30T09:06:48.518Z,59.85
2022-08-30T09:07:48.524Z,60.58
2022-08-30T09:08:48.502Z,61.58
2022-08-30T09:09:48.491Z,62.38
2022-08-30T09:10:50.851Z,62.55
2022-08-30T09:11:49.471Z,61.48
2022-08-30T09:12:48.463Z,61.45
2022-08-30T09:13:48.451Z,61.95
2022-08-30T09:14:48.446Z,61.32
2022-08-30T09:15:53.710Z,59.52
2022-08-30T09:16:50.437Z,59.82
2022-08-30T09:17:48.411Z,59.72
2022-08-30T09:18:52.660Z,59.30
2022-08-30T09:19:49.393Z,58.39
2022-08-30T09:20:48.383Z,59.39
2022-08-30T09:21:48.395Z,59.30
2022-08-30T09:22:48.360Z,58.97
2022-08-30T09:23:48.353Z,57.67
2022-08-30T09:24:48.342Z,57.57
2022-08-30T09:25:48.332Z,57.57
2022-08-30T09:26:48.368Z,57.17
2022-08-30T09:27:48.317Z,56.96
2022-08-30T09:28:49.264Z,57.76
2022-08-30T09:29:48.321Z,58.86
2022-08-30T09:30:48.337Z,57.67
2022-08-30T09:31:48.322Z,57.74
2022-08-30T09:32:48.266Z,57.54
2022-08-30T09:33:48.261Z,56.74
2022-08-30T09:34:48.247Z,57.07
2022-08-30T09:35:48.236Z,57.67
2022-08-30T09:36:48.254Z,57.67
2022-08-30T09:37:48.230Z,57.69
2022-08-30T09:38:48.212Z,55.79
2022-08-30T09:39:48.193Z,56.52
2022-08-30T09:40:48.216Z,59.12
2022-08-30T09:41:48.177Z,58.72
2022-08-30T09:42:48.187Z,58.80
2022-08-30T09:43:48.170Z,59.09
2022-08-30T09:44:48.149Z,57.50
2022-08-30T09:45:49.683Z,57.92
2022-08-30T09:46:48.124Z,59.09
2022-08-30T09:47:48.159Z,58.67
2022-08-30T09:48:49.106Z,57.46
2022-08-30T09:49:48.115Z,59.36
2022-08-30T09:50:48.088Z,59.56
2022-08-30T09:51:49.081Z,58.97
2022-08-30T09:52:50.940Z,58.04
2022-08-30T09:54:07.355Z,57.17
2022-08-30T09:54:50.050Z,57.26
2022-08-30T09:55:48.047Z,56.94
2022-08-30T09:56:48.095Z,57.41
2022-08-30T09:57:48.030Z,57.51
2022-08-30T09:58:48.036Z,55.41
2022-08-30T09:59:48.090Z,55.21
2022-08-30T10:00:47.998Z,55.49
2022-08-30T10:01:47.986Z,54.46
2022-08-30T10:02:47.973Z,54.39
2022-08-30T10:03:47.989Z,55.36
2022-08-30T10:04:47.954Z,55.63
2022-08-30T10:05:47.946Z,54.06
2022-08-30T10:06:47.936Z,53.96
2022-08-30T10:07:47.924Z,54.49
2022-08-30T10:08:47.943Z,54.02
2022-08-30T10:09:47.900Z,54.89
2022-08-30T10:10:47.890Z,54.52
2022-08-30T10:11:47.881Z,55.11
2022-08-30T10:12:47.871Z,56.38
2022-08-30T10:13:47.875Z,53.47
2022-08-30T10:14:47.868Z,54.46
2022-08-30T10:15:47.838Z,54.04
2022-08-30T10:16:48.829Z,52.72
2022-08-30T10:17:47.822Z,52.02
2022-08-30T10:18:47.878Z,52.22
2022-08-30T10:19:47.811Z,51.65
2022-08-30T10:20:47.790Z,51.65
2022-08-30T10:21:47.779Z,52.39
2022-08-30T10:22:47.766Z,51.17
2022-08-30T10:23:47.786Z,51.65
2022-08-30T10:24:47.752Z,53.06
2022-08-30T10:25:47.733Z,53.56
2022-08-30T10:26:47.736Z,52.49
2022-08-30T10:27:47.723Z,52.87
2022-08-30T10:28:47.709Z,53.24
2022-08-30T10:29:47.725Z,53.02
2022-08-30T10:30:47.691Z,51.89
2022-08-30T10:31:47.679Z,52.39
2022-08-30T10:32:47.674Z,51.70
2022-08-30T10:33:47.661Z,52.97
2022-08-30T10:34:47.667Z,52.24
2022-08-30T10:35:47.650Z,51.35
2022-08-30T10:36:47.629Z,51.70
2022-08-30T10:37:47.622Z,51.65
2022-08-30T10:38:47.615Z,50.43
2022-08-30T10:39:47.616Z,50.10
2022-08-30T10:40:47.655Z,50.43
2022-08-30T10:41:47.593Z,50.13
2022-08-30T10:42:47.577Z,51.54
2022-08-30T10:43:50.941Z,51.82
2022-08-30T10:44:47.598Z,50.90
2022-08-30T10:45:47.541Z,50.40
2022-08-30T10:46:47.537Z,51.00
2022-08-30T10:47:47.527Z,51.84
2022-08-30T10:48:47.670Z,52.64
2022-08-30T10:49:47.538Z,53.16
2022-08-30T10:50:47.499Z,52.97
2022-08-30T10:51:47.519Z,52.94
2022-08-30T10:52:47.476Z,53.24
2022-08-30T10:53:47.466Z,52.54
2022-08-30T10:54:47.492Z,52.34
2022-08-30T10:55:50.096Z,51.62
2022-08-30T10:56:48.447Z,51.54
2022-08-30T10:57:47.435Z,51.62
2022-08-30T10:58:47.428Z,51.42
2022-08-30T11:00:19.324Z,50.05
2022-08-30T11:00:47.436Z,49.54
2022-08-30T11:01:47.482Z,49.49
2022-08-30T11:02:47.394Z,50.43
2022-08-30T11:03:47.376Z,50.40
2022-08-30T11:04:47.369Z,51.40
2022-08-30T11:05:47.376Z,51.25
2022-08-30T11:06:47.352Z,50.68
2022-08-30T11:07:47.375Z,51.57
2022-08-30T11:08:47.325Z,51.75
2022-08-30T11:09:47.317Z,51.45
2022-08-30T11:10:49.804Z,51.35
2022-08-30T11:11:47.306Z,50.98
2022-08-30T11:12:47.293Z,50.98
2022-08-30T11:13:47.282Z,51.60
2022-08-30T11:14:47.269Z,50.95
2022-08-30T11:15:47.291Z,52.76
2022-08-30T11:16:48.405Z,51.65
2022-08-30T11:17:47.243Z,52.42
2022-08-30T11:18:50.934Z,51.70
2022-08-30T11:19:47.228Z,51.67
2022-08-30T11:20:47.246Z,50.75
2022-08-30T11:21:47.206Z,50.48
2022-08-30T11:22:47.198Z,51.67
2022-08-30T11:23:47.189Z,51.50
2022-08-30T11:24:47.164Z,52.14
2022-08-30T11:25:47.165Z,52.02
2022-08-30T11:26:48.176Z,52.64
2022-08-30T11:27:47.148Z,52.67
2022-08-30T11:28:47.142Z,51.75
2022-08-30T11:29:47.540Z,52.02
2022-08-30T11:30:47.122Z,52.24
2022-08-30T11:31:47.533Z,52.12
2022-08-30T11:32:47.102Z,50.48
2022-08-30T11:33:47.091Z,51.30
2022-08-30T11:34:47.088Z,50.45
2022-08-30T11:36:49.104Z,51.70
2022-08-30T11:37:47.054Z,51.17
2022-08-30T11:38:47.048Z,51.30
2022-08-30T11:39:47.039Z,51.62
2022-08-30T11:40:47.034Z,51.89
2022-08-30T11:41:47.744Z,52.27
2022-08-30T11:42:48.060Z,52.04
2022-08-30T11:43:47.009Z,51.67
2022-08-30T11:44:46.989Z,51.65
2022-08-30T11:45:47.068Z,51.52
2022-08-30T11:46:46.996Z,51.32
2022-08-30T11:47:47.009Z,50.48
2022-08-30T11:48:54.351Z,49.34
2022-08-30T11:49:47.943Z,49.74
2022-08-30T11:50:48.490Z,49.78
2022-08-30T11:51:58.265Z,50.13
2022-08-30T11:52:48.941Z,51.84
2022-08-30T11:53:46.900Z,51.25
2022-08-30T11:54:50.999Z,51.77
2022-08-30T11:55:47.882Z,51.79
2022-08-30T11:56:46.867Z,52.72
2022-08-30T11:57:47.880Z,53.64
2022-08-30T11:58:46.867Z,54.64
2022-08-30T11:59:46.850Z,54.74
2022-08-30T12:00:51.577Z,54.51
2022-08-30T12:01:55.048Z,53.71
2022-08-30T12:02:47.986Z,53.22
2022-08-30T12:03:46.893Z,53.24
2022-08-30T12:04:46.791Z,53.94
2022-08-30T12:05:48.017Z,54.96
2022-08-30T12:06:46.776Z,55.63
2022-08-30T12:07:46.818Z,53.64
2022-08-30T12:08:47.342Z,53.94
2022-08-30T12:09:46.777Z,53.64
2022-08-30T12:10:46.737Z,54.44
2022-08-30T12:11:46.726Z,52.32
2022-08-30T12:12:46.750Z,54.11
2022-08-30T12:13:46.708Z,53.39
2022-08-30T12:14:46.699Z,51.65
2022-08-30T12:15:46.691Z,52.14
2022-08-30T12:16:46.720Z,50.75
2022-08-30T12:17:46.671Z,51.75
2022-08-30T12:18:46.685Z,52.17
2022-08-30T12:19:50.218Z,51.45
2022-08-30T12:20:47.644Z,49.63
2022-08-30T12:21:46.642Z,49.61
2022-08-30T12:22:46.706Z,49.38
2022-08-30T12:23:46.732Z,48.35
2022-08-30T12:24:46.605Z,47.75
2022-08-30T12:25:46.596Z,47.95
2022-08-30T12:26:46.584Z,48.25
2022-08-30T12:27:46.575Z,48.02
2022-08-30T12:28:46.593Z,47.43
2022-08-30T12:29:46.576Z,45.94
2022-08-30T12:30:46.901Z,45.34
2022-08-30T12:31:46.623Z,46.51
2022-08-30T12:32:46.531Z,45.40
2022-08-30T12:33:46.542Z,45.50
2022-08-30T12:34:46.514Z,46.71
2022-08-30T12:35:46.508Z,45.34
2022-08-30T12:36:46.497Z,46.04
2022-08-30T12:37:46.484Z,47.67
2022-08-30T12:38:46.490Z,47.89
2022-08-30T12:39:46.466Z,48.32
2022-08-30T12:40:47.512Z,48.46
2022-08-30T12:41:46.445Z,50.15
2022-08-30T12:42:46.435Z,49.70
2022-08-30T12:43:46.466Z,51.00
2022-08-30T12:44:46.419Z,51.20
2022-08-30T12:45:50.792Z,50.10
2022-08-30T12:46:46.396Z,49.80
2022-08-30T12:47:46.389Z,49.60
2022-08-30T12:48:46.419Z,49.70
2022-08-30T12:49:46.378Z,49.93
2022-08-30T12:50:46.361Z,51.22
2022-08-30T12:51:46.351Z,51.42
2022-08-30T12:52:46.346Z,51.12
2022-08-30T12:53:46.336Z,50.13
2022-08-30T12:54:46.342Z,50.90